Asti, California
Current Conditions -  °F | °C
As of 10:53 AM on Monday 20 Oct 2014 (Local Time) from KSTS Reporting Station
Overcast Overcast  
Wind Chill: 17°   Ceiling: 1600
Heat Index: 17°   Visibility: 10mi
Dew Point: 15°   Wind: 5mph
Humidity: 87%   Direction: 200°SSW
Pressure: 29.95"   Gusts: NA
Location:  38.7954°N, 123.01°W
Report Text: KSTS 201753Z 20004KT 10SM SCT010 BKN016 OVC055 17/15 A2995 RMK AO2 RAB10E19 SLP136 P0000 60000 T01720150 10172 20150 51020
Loading
Personal Weather Stations






























Interactive Weather Map
Tropical Storm Tracking
New forecast layout! Learn more

10-Day Weather Forecast

Advertisements
Track Severe Weather on mobile